メインページ
METAR-TAF:

METAR-TAF

空港 :

クアラルンプール, マレーシア

クアラルンプール国際空港

緯度: 02-44N, 経度: 101-42E, 海抜: 21m

現時点の気象観測

当レポートは29分前の20:00(UTC)に作成
無風
気温 26°C
湿度 89%
気圧 1009 hPa
視程: 9000m
高度3000ftの雲はほとんどない
高度28000ftの千切れ雲あり

METAR: WMKK 232000Z 00000KT 9000 FEW030 BKN280 26/24 Q1009 NOSIG

時間: 04:29 (20:29 UTC)

予報

当レポートは3時間29分前の17:00(UTC)に作成
予報は23日の 18時(UTC)から 25日の 00時(UTC)まで有効
の風 5kt
視程10km以上
高度1800ftの雲はほとんどない
高度14000ftの雲は散在している
高度28000ftの千切れ雲あり
確率 30% :
23日の 22時(UTC)から 24日の 02時(UTC)まで一時的に
視程: 5000m
高度1500ftの雲はほとんどない, 積乱雲.
高度1800ftの雲は散在している
激しい雷雨, 雨

TAF: WMKK 231700Z 2318/2500 17005KT 9999 FEW018 SCT140 BKN280 PROB30 TEMPO 2322/2402 5000 TSRA FEW015CB SCT018

4,000以上の空港の気象観測と天気予報(METAR報とTAF報)

利用可能な観測所は地図上に黄色い丸と赤い丸で示す。

丸の上にカーソルを重ねると観測所名を参照できる。

次にクリックすると気象観測と天気予報を参照できる。

マップの切り替え:黒色「×」印の緑ボタンをクリックして拡大、「-」印の緑ボタンをクリックして縮小、緑色の三角印をクリックして隣りの地図に切り替え


METAR-TAF: